Oklahoma City, OK (73110)

7:03 AM CDT on July 30, 2016 (GMT -0500)
Ridgecrest | | Change Station

Elev 1257 ft 35.47 °N, 97.40 °W | Updated 12 minutes ago

Scattered Clouds
Scattered Clouds
72.2 °F
Feels Like 72.2 °F
N
0.0
Wind Variable Wind from SSW

Today
High -- | Low -- °F
--% Chance of Precip.
Yesterday
High -- | Low -- °F
Precip. -- in
Pressure 29.95 in
Visibility 10.0 miles
Clouds Scattered Clouds 8500 ft
Dew Point 70 °F
Humidity 92%
Rainfall 0.00 in
Snow Depth Not available.
6:36 AM 8:34 PM
Waning Crescent, 14% visible
METAR KTIK 301158Z AUTO 18004KT 10SM SCT085 22/21 A2997 RMK AO2 LTG DSNT NW SLP142 70044 T02220205 10228 20220 53002 $
Pressure 29.95 in
Visibility 10.0 miles
Clouds Scattered Clouds 8500 ft
Dew Point 70 °F
Humidity 92%
Rainfall 0.00 in
Snow Depth Not available.
6:36 AM 8:34 PM
Waning Crescent, 14% visible
METAR KTIK 301158Z AUTO 18004KT 10SM SCT085 22/21 A2997 RMK AO2 LTG DSNT NW SLP142 70044 T02220205 10228 20220 53002 $

10-Day Weather Forecast

Almanac

Astronomy

Jul. 30, 2016 Rise Set
Actual Time
Civil Twilight
Nautical Twilight
Astronomical Twilight
Moon
Length of Visible Light
Length of Day
Tomorrow will be .
, % of the Moon is Illuminated

Today's Extremes

State Highs State Lows

Community

WunderPhotos

Upload Photos

1,928,541 photos uploaded!

WunderBlog® & News

Nearby

Air Quality

  Air Quality AQ Index Pollutant
Not available.

Snow Depth

Station Depth Elevation

Earthquake Activity

City Distance Mag. Time & Date
Minimum magnitude displayed is 2.5.

Coastal Water Temperatures

Place Temperature

Stations

Nearby Weather Stations

Station Location Temp. Windchill Dew Point Humidity Wind Precip. Elev Updated Type
                   

Watches & Warnings

There are currently no watches in effect.